Москва, Russia

09:20 AM MSK на 18 Ноември, 2017 (GMT +0300)
Valdayskiy proyezd | | Change Station

Elev 587 ft 55.87 °N, 37.47 °E | Updated 2 minutes ago

Заоблачено
Заоблачено
35.1 °F
Feels Like 35 °F
С
2.5
Ветер Променлив Ветер from ЗЈЗ
Gusts 5.0 mph

Денес
High -- | Low -- °F
--% Chance of Precip.
Вчера
High -- | Low -- °F
Precip. -- инчи
Притисок 30.01 инчи
Видливост 6.2 миљи
Облаци Заоблачено 800 ft
Лични чувство за темп. со ветерот 35 °F
Точка на kондензација 35 °F
Влажност 98%
Дожд 0.00 инчи
Височина на снег Not available.
8:12 AM 4:17 PM
Последниот квартал, 0% visible
METAR UUEE 180600Z 23005MPS 9999 OVC008 02/01 Q1016 R24R/190057 R24L/190057 NOSIG
Притисок 30.01 инчи
Видливост 6.2 миљи
Облаци Заоблачено 800 ft
Лични чувство за темп. со ветерот 35 °F
Точка на kондензација 35 °F
Влажност 98%
Дожд 0.00 инчи
Височина на снег Not available.
8:12 AM 4:17 PM
Последниот квартал, 0% visible
METAR UUEE 180600Z 23005MPS 9999 OVC008 02/01 Q1016 R24R/190057 R24L/190057 NOSIG

Get Severe Weather Alerts

Thanks for signing up!

Be on the lookout for a verification email in your inbox.

You'll start receiving the daily forecast at 6 AM.

×

10-Day Weather Forecast

×

Almanac

Астрономијата

Nov. 18, 2017 Изгревање Заоѓање
Актуелно време
Граѓанскиот самрак
Наутички самрак
Астрономски самрак
Месечината
Должина на видливата светлина
Должина на денот
Tomorrow will be .
, % of the Moon is Illuminated

Екстреми денес

Country Highs Country Lows

Community

WunderPhotos

Category 6

Welcome to Category 6. This is the collective home for Weather Underground's featured writeups by Dr. Jeff Masters (right), Bob Henson (left), Chris Burt, and other regular contributors.

Nearby

Квалитетот на воздухот

  Квалитетот на воздухот AQ индекс Загадувач
Not available.

Височина на снег

Station Depth Висина

Earthquake Activity

Град Distance Mag. Time & Date
Minimum magnitude displayed is 2.5.

Coastal Water Temperatures

Место Температура

Stations

Nearby Weather Stations

Локација на станицата Темп. Лични чувство за темп. со ветерот Точка на kондензација Влажност Ветер Precip. Elev Ажурирани Тип